Disclaimer

Please do not use the information listed here in-flight or in-navigation, as they are not provided to us by the airports but are provided by volunteers, so they might be outdated.

Search


Regions


Airport information page

Radio informations:
Tower (TWR) - 120.8 MHz
RDO - 8861 MHz

Airport informations:
Latitude: 20° 55' 59.04" N
Longitude: 017° 01' 47.84" W
Elevation: 16 feet - 5 meters
Operating hours: N/A
Operating agency: Civil government, landing fees and diplomatic clearance may be required
Timezone: UTC 0
Fuel: Jet A1, without icing nhibitor.

100/130 MIL Spec, low lead, aviation gasoline (BLUE)

Runway information:
02/20 - 7961 x 148 feet< - >2427 x 45 meters

Recent METARs:
GQPP 130000Z 02017KT 8000 NSC 18/14 Q1020 NOSIG
GQPP 130000Z 02017KT 8000 NSC 18/14 Q1020 NOSIG
GQPP 130000Z 02017KT 8000 NSC 18/14 Q1020 NOSIG

Airport on the map: